sensor_id;sensor_type;location;lat;lon;timestamp;pressure;altitude;pressure_sealevel;temperature;humidity
61682;BME280;47577;43.610;25.010;2024-01-15T00:00:44;99915.19;;;0.14;61.06
61682;BME280;47577;43.610;25.010;2024-01-15T00:03:09;99904.72;;;0.45;57.83
61682;BME280;47577;43.610;25.010;2024-01-15T00:05:36;99905.59;;;0.77;56.55
61682;BME280;47577;43.610;25.010;2024-01-15T00:08:02;99902.91;;;0.90;57.69
61682;BME280;47577;43.610;25.010;2024-01-15T00:10:27;99884.66;;;0.80;57.04
61682;BME280;47577;43.610;25.010;2024-01-15T00:12:53;99906.44;;;0.91;55.45
61682;BME280;47577;43.610;25.010;2024-01-15T00:15:19;99907.22;;;1.15;55.89
61682;BME280;47577;43.610;25.010;2024-01-15T00:17:44;99917.66;;;1.25;55.47
61682;BME280;47577;43.610;25.010;2024-01-15T00:20:10;99920.25;;;1.35;54.68
61682;BME280;47577;43.610;25.010;2024-01-15T00:22:36;99914.09;;;1.43;54.30
61682;BME280;47577;43.610;25.010;2024-01-15T00:25:02;99901.09;;;1.28;55.12
61682;BME280;47577;43.610;25.010;2024-01-15T00:27:28;99881.03;;;1.15;55.67
61682;BME280;47577;43.610;25.010;2024-01-15T00:29:54;99881.94;;;1.03;55.46
61682;BME280;47577;43.610;25.010;2024-01-15T00:32:20;99868.91;;;0.87;55.77
61682;BME280;47577;43.610;25.010;2024-01-15T00:34:46;99895.03;;;1.09;56.48
61682;BME280;47577;43.610;25.010;2024-01-15T00:37:12;99908.13;;;1.06;56.59
61682;BME280;47577;43.610;25.010;2024-01-15T00:39:37;99895.97;;;0.94;55.81
61682;BME280;47577;43.610;25.010;2024-01-15T00:42:03;99906.38;;;1.08;55.91
61682;BME280;47577;43.610;25.010;2024-01-15T00:44:29;99877.66;;;0.82;55.83
61682;BME280;47577;43.610;25.010;2024-01-15T00:46:55;99905.59;;;0.81;56.05
61682;BME280;47577;43.610;25.010;2024-01-15T00:49:21;99892.50;;;0.66;57.12
61682;BME280;47577;43.610;25.010;2024-01-15T00:51:47;99901.19;;;0.93;56.83
61682;BME280;47577;43.610;25.010;2024-01-15T00:54:13;99888.13;;;0.83;55.67
61682;BME280;47577;43.610;25.010;2024-01-15T00:56:38;99899.44;;;0.81;57.16
61682;BME280;47577;43.610;25.010;2024-01-15T00:59:04;99888.16;;;0.57;58.74
61682;BME280;47577;43.610;25.010;2024-01-15T01:01:30;99882.06;;;0.29;60.21
61682;BME280;47577;43.610;25.010;2024-01-15T01:03:57;99828.03;;;-0.14;60.00
61682;BME280;47577;43.610;25.010;2024-01-15T01:06:27;99847.19;;;-0.18;61.04
61682;BME280;47577;43.610;25.010;2024-01-15T01:08:55;99881.19;;;-0.04;62.52
61682;BME280;47577;43.610;25.010;2024-01-15T01:11:21;99883.75;;;-0.21;62.65
61682;BME280;47577;43.610;25.010;2024-01-15T01:13:47;99855.88;;;-0.47;63.16
61682;BME280;47577;43.610;25.010;2024-01-15T01:16:13;99847.13;;;-0.63;63.75
61682;BME280;47577;43.610;25.010;2024-01-15T01:18:40;99836.63;;;-0.75;63.50
61682;BME280;47577;43.610;25.010;2024-01-15T01:21:06;99824.44;;;-0.81;64.30
61682;BME280;47577;43.610;25.010;2024-01-15T01:23:44;99850.59;;;-0.59;63.94
61682;BME280;47577;43.610;25.010;2024-01-15T01:26:24;99835.78;;;-0.74;65.26
61682;BME280;47577;43.610;25.010;2024-01-15T01:28:50;99850.56;;;-0.68;65.38
61682;BME280;47577;43.610;25.010;2024-01-15T01:31:16;99846.25;;;-0.66;65.43
61682;BME280;47577;43.610;25.010;2024-01-15T01:33:46;99849.72;;;-0.69;63.69
61682;BME280;47577;43.610;25.010;2024-01-15T01:41:57;99853.22;;;-0.61;64.56
61682;BME280;47577;43.610;25.010;2024-01-15T01:44:23;99796.56;;;-0.86;64.62
61682;BME280;47577;43.610;25.010;2024-01-15T01:46:49;99797.53;;;-0.57;63.35
61682;BME280;47577;43.610;25.010;2024-01-15T01:49:15;99819.34;;;0.15;58.64
61682;BME280;47577;43.610;25.010;2024-01-15T01:51:41;99813.22;;;0.30;59.04
61682;BME280;47577;43.610;25.010;2024-01-15T01:54:07;99800.09;;;0.50;57.50
61682;BME280;47577;43.610;25.010;2024-01-15T01:56:35;99808.72;;;0.83;55.77
61682;BME280;47577;43.610;25.010;2024-01-15T01:59:02;99809.50;;;1.05;55.94
61682;BME280;47577;43.610;25.010;2024-01-15T02:01:29;99827.78;;;1.19;55.91
61682;BME280;47577;43.610;25.010;2024-01-15T02:03:55;99794.59;;;1.16;54.80
61682;BME280;47577;43.610;25.010;2024-01-15T02:06:23;99842.34;;;1.66;54.55
61682;BME280;47577;43.610;25.010;2024-01-15T02:08:49;99842.38;;;1.63;54.76
61682;BME280;47577;43.610;25.010;2024-01-15T02:11:15;99826.78;;;1.43;53.47
61682;BME280;47577;43.610;25.010;2024-01-15T02:13:41;99782.31;;;1.27;54.17
61682;BME280;47577;43.610;25.010;2024-01-15T02:16:07;99785.78;;;1.33;53.94
61682;BME280;47577;43.610;25.010;2024-01-15T02:18:43;99777.88;;;1.39;54.33
61682;BME280;47577;43.610;25.010;2024-01-15T02:21:09;99779.59;;;1.46;54.21
61682;BME280;47577;43.610;25.010;2024-01-15T02:23:36;99816.13;;;1.69;54.36
61682;BME280;47577;43.610;25.010;2024-01-15T02:26:03;99791.78;;;1.52;55.07
61682;BME280;47577;43.610;25.010;2024-01-15T02:28:30;99816.88;;;1.88;53.74
61682;BME280;47577;43.610;25.010;2024-01-15T02:30:56;99751.69;;;1.37;54.07
61682;BME280;47577;43.610;25.010;2024-01-15T02:33:22;99752.53;;;1.42;53.98
61682;BME280;47577;43.610;25.010;2024-01-15T02:35:48;99736.00;;;1.31;53.70
61682;BME280;47577;43.610;25.010;2024-01-15T02:38:16;99749.09;;;1.33;53.96
61682;BME280;47577;43.610;25.010;2024-01-15T02:40:43;99749.91;;;1.41;53.71
61682;BME280;47577;43.610;25.010;2024-01-15T02:43:09;99762.97;;;1.47;54.06
61682;BME280;47577;43.610;25.010;2024-01-15T02:45:35;99805.72;;;1.58;54.87
61682;BME280;47577;43.610;25.010;2024-01-15T02:48:01;99802.19;;;1.62;54.74
61682;BME280;47577;43.610;25.010;2024-01-15T02:50:26;99796.06;;;1.63;54.85
61682;BME280;47577;43.610;25.010;2024-01-15T02:52:52;99804.78;;;1.69;54.98
61682;BME280;47577;43.610;25.010;2024-01-15T02:55:18;99769.19;;;1.37;54.84
61682;BME280;47577;43.610;25.010;2024-01-15T02:57:43;99744.84;;;1.19;55.21
61682;BME280;47577;43.610;25.010;2024-01-15T03:00:09;99783.13;;;1.40;54.86
61682;BME280;47577;43.610;25.010;2024-01-15T03:02:40;99754.31;;;1.36;54.29
61682;BME280;47577;43.610;25.010;2024-01-15T03:05:06;99775.22;;;1.46;54.16
61682;BME280;47577;43.610;25.010;2024-01-15T03:07:33;99785.75;;;1.40;54.56
61682;BME280;47577;43.610;25.010;2024-01-15T03:09:59;99777.09;;;1.23;55.04
61682;BME280;47577;43.610;25.010;2024-01-15T03:12:24;99770.13;;;1.28;55.05
61682;BME280;47577;43.610;25.010;2024-01-15T03:14:50;99749.19;;;1.22;55.48
61682;BME280;47577;43.610;25.010;2024-01-15T03:17:16;99770.84;;;1.45;55.18
61682;BME280;47577;43.610;25.010;2024-01-15T03:19:42;99775.25;;;1.43;55.59
61682;BME280;47577;43.610;25.010;2024-01-15T03:22:07;99731.66;;;1.36;55.40
61682;BME280;47577;43.610;25.010;2024-01-15T03:24:34;99764.69;;;1.54;55.42
61682;BME280;47577;43.610;25.010;2024-01-15T03:27:01;99705.53;;;1.24;54.74
61682;BME280;47577;43.610;25.010;2024-01-15T03:29:26;99722.09;;;1.24;55.90
61682;BME280;47577;43.610;25.010;2024-01-15T03:31:52;99754.34;;;1.34;56.49
61682;BME280;47577;43.610;25.010;2024-01-15T03:34:18;99757.84;;;1.35;56.63
61682;BME280;47577;43.610;25.010;2024-01-15T03:36:44;99760.47;;;1.32;57.23
61682;BME280;47577;43.610;25.010;2024-01-15T03:39:10;99746.56;;;1.23;57.03
61682;BME280;47577;43.610;25.010;2024-01-15T03:41:35;99749.16;;;1.26;57.03
61682;BME280;47577;43.610;25.010;2024-01-15T03:44:01;99757.84;;;1.33;57.11
61682;BME280;47577;43.610;25.010;2024-01-15T03:46:27;99757.91;;;1.24;57.44
61682;BME280;47577;43.610;25.010;2024-01-15T03:48:52;99749.13;;;1.31;56.98
61682;BME280;47577;43.610;25.010;2024-01-15T03:51:18;99743.97;;;1.20;57.13
61682;BME280;47577;43.610;25.010;2024-01-15T03:53:44;99745.63;;;1.29;57.44
61682;BME280;47577;43.610;25.010;2024-01-15T03:56:10;99734.31;;;1.28;57.15
61682;BME280;47577;43.610;25.010;2024-01-15T03:58:35;99742.97;;;1.40;57.50
61682;BME280;47577;43.610;25.010;2024-01-15T04:01:01;99741.16;;;1.46;56.93
61682;BME280;47577;43.610;25.010;2024-01-15T04:03:27;99736.81;;;1.42;57.19
61682;BME280;47577;43.610;25.010;2024-01-15T04:05:52;99746.44;;;1.40;56.67
61682;BME280;47577;43.610;25.010;2024-01-15T04:08:18;99714.97;;;1.43;56.60
61682;BME280;47577;43.610;25.010;2024-01-15T04:10:44;99738.38;;;1.67;56.80
61682;BME280;47577;43.610;25.010;2024-01-15T04:13:09;99720.94;;;1.64;57.19
61682;BME280;47577;43.610;25.010;2024-01-15T04:15:35;99726.25;;;1.53;57.96
61682;BME280;47577;43.610;25.010;2024-01-15T04:18:02;99742.00;;;1.49;58.08
61682;BME280;47577;43.610;25.010;2024-01-15T04:20:28;99739.53;;;1.30;58.92
61682;BME280;47577;43.610;25.010;2024-01-15T04:22:53;99740.38;;;1.35;59.21
61682;BME280;47577;43.610;25.010;2024-01-15T04:25:19;99736.91;;;1.33;58.82
61682;BME280;47577;43.610;25.010;2024-01-15T04:27:45;99743.88;;;1.31;59.07
61682;BME280;47577;43.610;25.010;2024-01-15T04:30:11;99736.06;;;1.28;59.43
61682;BME280;47577;43.610;25.010;2024-01-15T04:32:37;99732.56;;;1.27;59.39
61682;BME280;47577;43.610;25.010;2024-01-15T04:35:02;99734.25;;;1.39;57.67
61682;BME280;47577;43.610;25.010;2024-01-15T04:37:28;99735.13;;;1.37;56.92
61682;BME280;47577;43.610;25.010;2024-01-15T04:39:54;99740.22;;;1.55;55.53
61682;BME280;47577;43.610;25.010;2024-01-15T04:42:23;99736.75;;;1.50;56.08
61682;BME280;47577;43.610;25.010;2024-01-15T04:44:49;99726.34;;;1.42;56.04
61682;BME280;47577;43.610;25.010;2024-01-15T04:47:15;99721.09;;;1.41;56.56
61682;BME280;47577;43.610;25.010;2024-01-15T04:49:41;99705.44;;;1.38;55.42
61682;BME280;47577;43.610;25.010;2024-01-15T04:52:06;99725.44;;;1.46;55.41
61682;BME280;47577;43.610;25.010;2024-01-15T04:54:32;99725.50;;;1.37;55.32
61682;BME280;47577;43.610;25.010;2024-01-15T04:56:58;99700.19;;;1.39;55.51
61682;BME280;47577;43.610;25.010;2024-01-15T04:59:23;99721.09;;;1.42;55.27
61682;BME280;47577;43.610;25.010;2024-01-15T05:01:49;99722.03;;;1.35;55.56
61682;BME280;47577;43.610;25.010;2024-01-15T05:04:15;99721.06;;;1.47;56.06
61682;BME280;47577;43.610;25.010;2024-01-15T05:06:40;99701.94;;;1.34;56.48
61682;BME280;47577;43.610;25.010;2024-01-15T05:09:06;99708.00;;;1.41;56.17
61682;BME280;47577;43.610;25.010;2024-01-15T05:11:32;99709.63;;;1.59;56.33
61682;BME280;47577;43.610;25.010;2024-01-15T05:13:58;99695.66;;;1.57;56.23
61682;BME280;47577;43.610;25.010;2024-01-15T05:16:24;99704.31;;;1.67;55.75
61682;BME280;47577;43.610;25.010;2024-01-15T05:18:49;99707.81;;;1.69;56.72
61682;BME280;47577;43.610;25.010;2024-01-15T05:21:15;99701.63;;;1.73;56.52
61682;BME280;47577;43.610;25.010;2024-01-15T05:23:41;99685.00;;;1.77;56.95
61682;BME280;47577;43.610;25.010;2024-01-15T05:26:06;99675.63;;;1.53;57.90
61682;BME280;47577;43.610;25.010;2024-01-15T05:28:34;99699.03;;;1.70;56.89
61682;BME280;47577;43.610;25.010;2024-01-15T05:31:00;99691.13;;;1.77;57.76
61682;BME280;47577;43.610;25.010;2024-01-15T05:33:25;99677.22;;;1.69;56.78
61682;BME280;47577;43.610;25.010;2024-01-15T05:35:51;99696.38;;;1.74;57.40
61682;BME280;47577;43.610;25.010;2024-01-15T05:38:17;99683.50;;;1.50;57.59
61682;BME280;47577;43.610;25.010;2024-01-15T05:40:43;99685.06;;;1.71;57.55
61682;BME280;47577;43.610;25.010;2024-01-15T05:43:08;99682.38;;;1.80;57.29
61682;BME280;47577;43.610;25.010;2024-01-15T05:45:34;99694.50;;;1.90;56.27
61682;BME280;47577;43.610;25.010;2024-01-15T05:48:01;99678.00;;;1.79;56.61
61682;BME280;47577;43.610;25.010;2024-01-15T05:50:26;99679.56;;;1.97;55.95
61682;BME280;47577;43.610;25.010;2024-01-15T05:52:52;99659.53;;;1.91;56.43
61682;BME280;47577;43.610;25.010;2024-01-15T05:55:18;99664.78;;;1.90;56.02
61682;BME280;47577;43.610;25.010;2024-01-15T05:57:44;99658.59;;;1.97;56.16
61682;BME280;47577;43.610;25.010;2024-01-15T06:00:10;99657.84;;;1.82;56.24
61682;BME280;47577;43.610;25.010;2024-01-15T06:02:39;99661.50;;;1.66;57.01
61682;BME280;47577;43.610;25.010;2024-01-15T06:05:05;99664.03;;;1.78;57.69
61682;BME280;47577;43.610;25.010;2024-01-15T06:07:33;99661.50;;;1.69;57.83
61682;BME280;47577;43.610;25.010;2024-01-15T06:09:59;99657.09;;;1.71;57.80
61682;BME280;47577;43.610;25.010;2024-01-15T06:12:24;99657.09;;;1.70;58.37
61682;BME280;47577;43.610;25.010;2024-01-15T06:14:50;99670.09;;;1.83;57.64
61682;BME280;47577;43.610;25.010;2024-01-15T06:17:16;99659.59;;;1.85;58.43
61682;BME280;47577;43.610;25.010;2024-01-15T06:19:41;99671.75;;;1.92;57.93
61682;BME280;47577;43.610;25.010;2024-01-15T06:22:08;99670.03;;;1.91;58.10
61682;BME280;47577;43.610;25.010;2024-01-15T06:24:34;99659.56;;;1.87;57.61
61682;BME280;47577;43.610;25.010;2024-01-15T06:26:59;99658.47;;;2.08;57.83
61682;BME280;47577;43.610;25.010;2024-01-15T06:29:26;99650.75;;;1.94;57.50
61682;BME280;47577;43.610;25.010;2024-01-15T06:31:53;99657.50;;;2.16;57.08
61682;BME280;47577;43.610;25.010;2024-01-15T06:34:18;99645.25;;;2.17;57.52
61682;BME280;47577;43.610;25.010;2024-01-15T06:36:44;99659.03;;;2.34;56.96
61682;BME280;47577;43.610;25.010;2024-01-15T06:39:10;99654.69;;;2.33;57.84
61682;BME280;47577;43.610;25.010;2024-01-15T06:41:36;99654.59;;;2.40;57.14
61682;BME280;47577;43.610;25.010;2024-01-15T06:44:12;99643.03;;;2.58;57.38
61682;BME280;47577;43.610;25.010;2024-01-15T06:46:44;99644.50;;;2.79;56.82
61682;BME280;47577;43.610;25.010;2024-01-15T06:49:10;99640.06;;;2.82;57.38
61682;BME280;47577;43.610;25.010;2024-01-15T06:51:36;99627.00;;;2.76;57.42
61682;BME280;47577;43.610;25.010;2024-01-15T06:54:02;99642.63;;;2.87;56.90
61682;BME280;47577;43.610;25.010;2024-01-15T06:56:27;99641.66;;;2.91;57.01
61682;BME280;47577;43.610;25.010;2024-01-15T06:58:53;99650.28;;;3.01;57.02
61682;BME280;47577;43.610;25.010;2024-01-15T07:01:19;99645.84;;;3.04;55.86
61682;BME280;47577;43.610;25.010;2024-01-15T07:03:44;99642.88;;;3.27;54.78
61682;BME280;47577;43.610;25.010;2024-01-15T07:06:11;99634.88;;;3.34;54.80
61682;BME280;47577;43.610;25.010;2024-01-15T07:08:37;99637.59;;;3.29;53.90
61682;BME280;47577;43.610;25.010;2024-01-15T07:11:06;99633.41;;;3.16;54.35
61682;BME280;47577;43.610;25.010;2024-01-15T07:13:32;99623.03;;;3.09;54.28
61682;BME280;47577;43.610;25.010;2024-01-15T07:15:58;99621.13;;;3.19;54.73
61682;BME280;47577;43.610;25.010;2024-01-15T07:18:24;99635.78;;;3.33;54.10
61682;BME280;47577;43.610;25.010;2024-01-15T07:20:50;99626.69;;;3.52;53.62
61682;BME280;47577;43.610;25.010;2024-01-15T07:23:16;99630.09;;;3.57;53.84
61682;BME280;47577;43.610;25.010;2024-01-15T07:25:42;99627.38;;;3.63;53.22
61682;BME280;47577;43.610;25.010;2024-01-15T07:28:09;99626.41;;;3.67;53.30
61682;BME280;47577;43.610;25.010;2024-01-15T07:30:34;99619.56;;;3.59;53.96
61682;BME280;47577;43.610;25.010;2024-01-15T07:33:00;99644.69;;;3.75;54.16
61682;BME280;47577;43.610;25.010;2024-01-15T07:35:26;99635.00;;;3.77;52.67
61682;BME280;47577;43.610;25.010;2024-01-15T07:37:52;99649.94;;;3.75;53.14
61682;BME280;47577;43.610;25.010;2024-01-15T07:40:17;99643.03;;;3.70;52.37
61682;BME280;47577;43.610;25.010;2024-01-15T07:42:43;99648.03;;;3.83;52.40
61682;BME280;47577;43.610;25.010;2024-01-15T07:45:10;99635.84;;;3.79;52.35
61682;BME280;47577;43.610;25.010;2024-01-15T07:47:36;99639.31;;;3.81;52.23
61682;BME280;47577;43.610;25.010;2024-01-15T07:50:01;99643.47;;;3.93;52.02
61682;BME280;47577;43.610;25.010;2024-01-15T07:52:27;99638.06;;;4.01;52.72
61682;BME280;47577;43.610;25.010;2024-01-15T07:54:53;99642.06;;;4.22;51.89
61682;BME280;47577;43.610;25.010;2024-01-15T07:57:18;99629.59;;;4.30;51.40
61682;BME280;47577;43.610;25.010;2024-01-15T07:59:44;99624.09;;;4.43;51.56
61682;BME280;47577;43.610;25.010;2024-01-15T08:02:10;99615.13;;;4.51;51.71
61682;BME280;47577;43.610;25.010;2024-01-15T08:04:37;99620.88;;;4.70;51.82
61682;BME280;47577;43.610;25.010;2024-01-15T08:07:04;99612.88;;;4.75;50.41
61682;BME280;47577;43.610;25.010;2024-01-15T08:09:31;99605.94;;;4.69;52.02
61682;BME280;47577;43.610;25.010;2024-01-15T08:11:56;99618.31;;;4.66;52.68
61682;BME280;47577;43.610;25.010;2024-01-15T08:14:22;99600.63;;;4.72;51.59
61682;BME280;47577;43.610;25.010;2024-01-15T08:16:48;99611.97;;;4.74;51.27
61682;BME280;47577;43.610;25.010;2024-01-15T08:19:13;99606.56;;;4.81;51.02
61682;BME280;47577;43.610;25.010;2024-01-15T08:21:39;99594.38;;;4.78;51.94
61682;BME280;47577;43.610;25.010;2024-01-15T08:24:05;99601.09;;;4.90;51.33
61682;BME280;47577;43.610;25.010;2024-01-15T08:26:31;99602.78;;;4.94;51.25
61682;BME280;47577;43.610;25.010;2024-01-15T08:28:58;99606.19;;;4.98;51.60
61682;BME280;47577;43.610;25.010;2024-01-15T08:31:24;99596.44;;;5.01;50.73
61682;BME280;47577;43.610;25.010;2024-01-15T08:33:49;99598.09;;;5.05;50.96
61682;BME280;47577;43.610;25.010;2024-01-15T08:36:15;99596.47;;;5.00;51.00
61682;BME280;47577;43.610;25.010;2024-01-15T08:38:41;99601.59;;;5.07;49.99
61682;BME280;47577;43.610;25.010;2024-01-15T08:41:06;99598.31;;;4.98;51.19
61682;BME280;47577;43.610;25.010;2024-01-15T08:43:34;99590.00;;;5.13;50.00
61682;BME280;47577;43.610;25.010;2024-01-15T08:45:59;99580.69;;;5.00;50.32
61682;BME280;47577;43.610;25.010;2024-01-15T08:48:26;99588.66;;;4.97;50.57
61682;BME280;47577;43.610;25.010;2024-01-15T08:50:55;99594.44;;;5.12;50.37
61682;BME280;47577;43.610;25.010;2024-01-15T08:53:20;99590.91;;;5.13;50.31
61682;BME280;47577;43.610;25.010;2024-01-15T08:55:46;99582.34;;;5.04;50.66
61682;BME280;47577;43.610;25.010;2024-01-15T08:58:13;99575.47;;;4.97;50.04
61682;BME280;47577;43.610;25.010;2024-01-15T09:00:38;99594.78;;;4.97;50.29
61682;BME280;47577;43.610;25.010;2024-01-15T09:03:05;99591.47;;;4.89;51.03
61682;BME280;47577;43.610;25.010;2024-01-15T09:05:31;99592.41;;;4.86;51.19
61682;BME280;47577;43.610;25.010;2024-01-15T09:07:57;99573.31;;;4.76;51.25
61682;BME280;47577;43.610;25.010;2024-01-15T09:10:22;99587.34;;;4.77;50.97
61682;BME280;47577;43.610;25.010;2024-01-15T09:12:48;99571.66;;;4.72;50.93
61682;BME280;47577;43.610;25.010;2024-01-15T09:15:17;99548.25;;;4.60;51.06
61682;BME280;47577;43.610;25.010;2024-01-15T09:17:43;99542.75;;;4.69;51.37
61682;BME280;47577;43.610;25.010;2024-01-15T09:20:09;99534.91;;;4.66;50.98
61682;BME280;47577;43.610;25.010;2024-01-15T09:22:37;99543.34;;;4.81;50.82
61682;BME280;47577;43.610;25.010;2024-01-15T09:25:04;99532.09;;;4.74;51.05
61682;BME280;47577;43.610;25.010;2024-01-15T09:27:30;99539.22;;;4.70;51.14
61682;BME280;47577;43.610;25.010;2024-01-15T09:29:56;99533.88;;;4.73;51.63
61682;BME280;47577;43.610;25.010;2024-01-15T09:32:21;99519.72;;;4.78;51.23
61682;BME280;47577;43.610;25.010;2024-01-15T09:34:47;99513.00;;;4.66;51.58
61682;BME280;47577;43.610;25.010;2024-01-15T09:37:14;99524.28;;;4.71;50.90
61682;BME280;47577;43.610;25.010;2024-01-15T09:39:40;99518.84;;;4.79;50.97
61682;BME280;47577;43.610;25.010;2024-01-15T09:42:06;99514.22;;;4.88;50.77
61682;BME280;47577;43.610;25.010;2024-01-15T09:44:32;99495.72;;;4.90;50.75
61682;BME280;47577;43.610;25.010;2024-01-15T09:46:58;99486.00;;;4.92;51.19
61682;BME280;47577;43.610;25.010;2024-01-15T09:49:24;99477.81;;;5.04;50.09
61682;BME280;47577;43.610;25.010;2024-01-15T09:51:50;99479.09;;;5.22;50.57
61682;BME280;47577;43.610;25.010;2024-01-15T09:54:16;99458.34;;;5.43;50.36
61682;BME280;47577;43.610;25.010;2024-01-15T09:56:47;99452.31;;;5.69;49.75
61682;BME280;47577;43.610;25.010;2024-01-15T09:59:17;99437.09;;;5.79;50.66
61682;BME280;47577;43.610;25.010;2024-01-15T10:01:44;99433.13;;;5.64;52.79
61682;BME280;47577;43.610;25.010;2024-01-15T10:04:11;99450.81;;;5.90;49.30
61682;BME280;47577;43.610;25.010;2024-01-15T10:06:38;99446.13;;;6.01;49.65
61682;BME280;47577;43.610;25.010;2024-01-15T10:09:05;99440.28;;;5.90;49.43
61682;BME280;47577;43.610;25.010;2024-01-15T10:11:31;99428.75;;;5.93;52.14
61682;BME280;47577;43.610;25.010;2024-01-15T10:13:58;99420.03;;;5.91;52.28
61682;BME280;47577;43.610;25.010;2024-01-15T10:16:23;99389.38;;;5.86;51.95
61682;BME280;47577;43.610;25.010;2024-01-15T10:18:49;99387.22;;;6.01;51.45
61682;BME280;47577;43.610;25.010;2024-01-15T10:21:15;99385.09;;;6.12;48.52
61682;BME280;47577;43.610;25.010;2024-01-15T10:23:41;99386.19;;;6.33;49.92
61682;BME280;47577;43.610;25.010;2024-01-15T10:26:08;99385.00;;;6.42;48.42
61682;BME280;47577;43.610;25.010;2024-01-15T10:28:33;99375.34;;;6.68;48.44
61682;BME280;47577;43.610;25.010;2024-01-15T10:31:00;99373.09;;;6.82;47.83
61682;BME280;47577;43.610;25.010;2024-01-15T10:33:26;99379.53;;;7.00;47.62
61682;BME280;47577;43.610;25.010;2024-01-15T10:35:56;99358.28;;;7.03;50.35
61682;BME280;47577;43.610;25.010;2024-01-15T10:38:23;99353.47;;;6.89;50.04
61682;BME280;47577;43.610;25.010;2024-01-15T10:40:57;99351.31;;;7.01;48.20
61682;BME280;47577;43.610;25.010;2024-01-15T10:43:23;99347.59;;;7.30;47.50
61682;BME280;47577;43.610;25.010;2024-01-15T10:45:50;99346.16;;;7.45;46.93
61682;BME280;47577;43.610;25.010;2024-01-15T10:48:18;99349.41;;;7.75;46.47
61682;BME280;47577;43.610;25.010;2024-01-15T10:50:46;99349.25;;;7.80;48.04
61682;BME280;47577;43.610;25.010;2024-01-15T10:53:13;99341.75;;;7.45;50.82
61682;BME280;47577;43.610;25.010;2024-01-15T10:55:41;99330.16;;;7.48;50.90
61682;BME280;47577;43.610;25.010;2024-01-15T10:58:08;99351.56;;;7.65;50.45
61682;BME280;47577;43.610;25.010;2024-01-15T11:00:37;99341.44;;;7.53;55.25
61682;BME280;47577;43.610;25.010;2024-01-15T11:03:05;99328.97;;;7.33;58.14
61682;BME280;47577;43.610;25.010;2024-01-15T11:05:38;99338.00;;;7.27;54.30
61682;BME280;47577;43.610;25.010;2024-01-15T11:08:06;99326.50;;;7.52;48.97
61682;BME280;47577;43.610;25.010;2024-01-15T11:10:46;99328.91;;;7.80;53.15
61682;BME280;47577;43.610;25.010;2024-01-15T11:13:21;99331.75;;;7.76;53.77
61682;BME280;47577;43.610;25.010;2024-01-15T11:16:05;99308.19;;;7.69;52.04
61682;BME280;47577;43.610;25.010;2024-01-15T11:18:34;99327.34;;;7.76;55.17
61682;BME280;47577;43.610;25.010;2024-01-15T11:23:55;99297.66;;;7.90;50.13
61682;BME280;47577;43.610;25.010;2024-01-15T11:26:34;99306.63;;;8.08;49.48
61682;BME280;47577;43.610;25.010;2024-01-15T11:29:08;99309.03;;;8.14;47.42
61682;BME280;47577;43.610;25.010;2024-01-15T11:34:10;99303.69;;;8.16;48.06
61682;BME280;47577;43.610;25.010;2024-01-15T11:42:02;99283.75;;;7.85;53.14
61682;BME280;47577;43.610;25.010;2024-01-15T11:44:30;99286.75;;;7.76;49.17
61682;BME280;47577;43.610;25.010;2024-01-15T11:47:03;99283.63;;;7.88;48.03
61682;BME280;47577;43.610;25.010;2024-01-15T11:49:46;99282.78;;;7.87;51.11
61682;BME280;47577;43.610;25.010;2024-01-15T11:52:19;99286.25;;;7.66;52.95
61682;BME280;47577;43.610;25.010;2024-01-15T11:55:33;99301.44;;;7.84;51.04
61682;BME280;47577;43.610;25.010;2024-01-15T11:57:46;99288.84;;;7.67;49.03
61682;BME280;47577;43.610;25.010;2024-01-15T12:00:13;99272.41;;;7.59;53.81
61682;BME280;47577;43.610;25.010;2024-01-15T12:02:43;99257.97;;;7.68;52.78
61682;BME280;47577;43.610;25.010;2024-01-15T12:05:10;99258.34;;;7.81;54.28
61682;BME280;47577;43.610;25.010;2024-01-15T12:07:39;99254.41;;;7.69;55.48
61682;BME280;47577;43.610;25.010;2024-01-15T12:10:09;99233.84;;;7.76;54.14
61682;BME280;47577;43.610;25.010;2024-01-15T12:12:57;99252.97;;;8.04;54.49
61682;BME280;47577;43.610;25.010;2024-01-15T12:15:25;99243.97;;;8.29;52.74
61682;BME280;47577;43.610;25.010;2024-01-15T12:17:51;99244.94;;;8.49;52.70
61682;BME280;47577;43.610;25.010;2024-01-15T12:20:17;99245.00;;;8.68;49.97
61682;BME280;47577;43.610;25.010;2024-01-15T12:22:43;99242.59;;;8.62;56.94
61682;BME280;47577;43.610;25.010;2024-01-15T12:25:10;99254.06;;;8.41;55.95
61682;BME280;47577;43.610;25.010;2024-01-15T12:27:35;99238.44;;;8.56;51.43
61682;BME280;47577;43.610;25.010;2024-01-15T12:30:01;99243.00;;;8.73;52.91
61682;BME280;47577;43.610;25.010;2024-01-15T12:32:27;99250.28;;;8.68;58.32
61682;BME280;47577;43.610;25.010;2024-01-15T12:34:52;99236.72;;;8.55;54.84
61682;BME280;47577;43.610;25.010;2024-01-15T12:37:18;99228.84;;;8.53;57.67
61682;BME280;47577;43.610;25.010;2024-01-15T12:39:45;99238.84;;;8.47;58.35
61682;BME280;47577;43.610;25.010;2024-01-15T12:42:10;99236.09;;;8.28;62.76
61682;BME280;47577;43.610;25.010;2024-01-15T12:44:37;99232.06;;;8.19;62.58
61682;BME280;47577;43.610;25.010;2024-01-15T12:47:06;99229.72;;;8.11;61.66
61682;BME280;47577;43.610;25.010;2024-01-15T12:49:32;99222.06;;;8.05;63.22
61682;BME280;47577;43.610;25.010;2024-01-15T12:51:58;99227.09;;;8.11;55.61
61682;BME280;47577;43.610;25.010;2024-01-15T12:54:25;99232.47;;;8.30;53.43
61682;BME280;47577;43.610;25.010;2024-01-15T12:56:51;99229.97;;;8.48;54.06
61682;BME280;47577;43.610;25.010;2024-01-15T12:59:18;99232.38;;;8.54;56.27
61682;BME280;47577;43.610;25.010;2024-01-15T13:01:44;99214.34;;;8.62;56.63
61682;BME280;47577;43.610;25.010;2024-01-15T13:04:10;99199.56;;;8.56;58.43
61682;BME280;47577;43.610;25.010;2024-01-15T13:06:36;99203.22;;;8.54;59.13
61682;BME280;47577;43.610;25.010;2024-01-15T13:09:05;99221.03;;;8.50;60.89
61682;BME280;47577;43.610;25.010;2024-01-15T13:11:33;99217.66;;;8.47;57.01
61682;BME280;47577;43.610;25.010;2024-01-15T13:13:59;99220.69;;;8.58;56.62